createdAt,value
2018-09-12T00:00:42.588Z,8.70
2018-09-12T00:03:10.928Z,8.23
2018-09-12T00:05:39.320Z,8.20
2018-09-12T00:08:07.726Z,7.95
2018-09-12T00:10:36.127Z,8.28
2018-09-12T00:13:04.481Z,8.20
2018-09-12T00:15:32.817Z,8.75
2018-09-12T00:18:01.139Z,8.15
2018-09-12T00:20:29.488Z,8.83
2018-09-12T00:22:57.845Z,8.50
2018-09-12T00:25:26.200Z,8.70
2018-09-12T00:27:54.571Z,8.88
2018-09-12T00:30:22.907Z,8.88
2018-09-12T00:32:51.262Z,8.68
2018-09-12T00:35:19.641Z,8.23
2018-09-12T00:37:48.004Z,8.83
2018-09-12T00:40:16.334Z,8.33
2018-09-12T00:42:44.773Z,8.40
2018-09-12T00:45:13.163Z,8.53
2018-09-12T00:47:41.532Z,8.50
2018-09-12T00:50:09.908Z,9.15
2018-09-12T00:52:38.293Z,8.40
2018-09-12T00:55:06.708Z,9.00
2018-09-12T00:57:35.048Z,8.95
2018-09-12T01:00:03.431Z,8.63
2018-09-12T01:02:31.778Z,9.00
2018-09-12T01:05:00.187Z,8.80
2018-09-12T01:07:28.538Z,9.20
2018-09-12T01:09:57.047Z,9.45
2018-09-12T01:12:25.396Z,9.23
2018-09-12T01:14:53.788Z,8.93
2018-09-12T01:17:22.168Z,9.23
2018-09-12T01:19:50.504Z,9.00
2018-09-12T01:22:18.839Z,9.65
2018-09-12T01:24:47.217Z,10.00
2018-09-12T01:27:15.616Z,10.05
2018-09-12T01:29:43.952Z,10.35
2018-09-12T01:32:12.341Z,9.60
2018-09-12T01:34:40.715Z,9.33
2018-09-12T01:37:09.076Z,9.80
2018-09-12T01:39:37.392Z,9.80
2018-09-12T01:42:05.768Z,9.30
2018-09-12T01:44:34.125Z,8.93
2018-09-12T01:47:02.492Z,9.93
2018-09-12T01:49:30.854Z,9.75
2018-09-12T01:51:59.237Z,9.20
2018-09-12T01:54:27.581Z,9.60
2018-09-12T01:56:55.927Z,9.80
2018-09-12T01:59:24.284Z,9.80
2018-09-12T02:01:52.589Z,9.63
2018-09-12T02:04:20.927Z,9.80
2018-09-12T02:06:49.320Z,9.70
2018-09-12T02:09:17.643Z,9.87
2018-09-12T02:11:45.987Z,9.88
2018-09-12T02:14:14.430Z,10.20
2018-09-12T02:16:42.812Z,10.10
2018-09-12T02:19:11.180Z,9.40
2018-09-12T02:21:39.568Z,9.90
2018-09-12T02:24:07.878Z,9.85
2018-09-12T02:26:36.253Z,9.70
2018-09-12T02:29:04.756Z,10.23
2018-09-12T02:31:33.124Z,10.40
2018-09-12T02:34:01.500Z,9.70
2018-09-12T02:36:30.242Z,9.50
2018-09-12T02:38:59.760Z,9.95
2018-09-12T02:41:28.125Z,9.95
2018-09-12T02:43:56.489Z,9.68
2018-09-12T02:46:24.876Z,9.65
2018-09-12T02:48:53.448Z,10.05
2018-09-12T02:51:21.831Z,9.20
2018-09-12T02:53:50.223Z,9.75
2018-09-12T02:56:19.026Z,9.30
2018-09-12T02:58:47.571Z,10.25
2018-09-12T03:01:15.964Z,10.18
2018-09-12T03:03:44.286Z,9.30
2018-09-12T03:06:12.667Z,10.08
2018-09-12T03:08:41.092Z,10.10
2018-09-12T03:11:09.472Z,10.00
2018-09-12T03:13:37.795Z,9.73
2018-09-12T03:16:06.166Z,9.70
2018-09-12T03:18:34.575Z,9.80
2018-09-12T03:21:03.104Z,9.90
2018-09-12T03:23:31.293Z,9.53
2018-09-12T03:25:59.597Z,10.10
2018-09-12T03:28:27.945Z,9.90
2018-09-12T03:30:56.276Z,10.00
2018-09-12T03:33:24.639Z,9.73
2018-09-12T03:35:52.952Z,9.70
2018-09-12T03:38:21.383Z,10.43
2018-09-12T03:40:49.728Z,9.95
2018-09-12T03:43:18.125Z,9.90
2018-09-12T03:45:46.476Z,10.18
2018-09-12T03:48:14.792Z,9.83
2018-09-12T03:50:43.189Z,9.83
2018-09-12T03:53:11.570Z,9.83
2018-09-12T03:55:39.980Z,9.75
2018-09-12T03:58:08.315Z,9.43
2018-09-12T04:00:36.653Z,10.00
2018-09-12T04:03:05.075Z,9.70
2018-09-12T04:05:33.517Z,9.50
2018-09-12T04:08:01.879Z,10.35
2018-09-12T04:10:30.204Z,10.10
2018-09-12T04:12:58.621Z,9.85
2018-09-12T04:15:26.972Z,10.03
2018-09-12T04:17:55.340Z,9.53
2018-09-12T04:20:23.723Z,9.90
2018-09-12T04:22:52.089Z,9.80
2018-09-12T04:25:20.499Z,9.80
2018-09-12T04:27:48.868Z,10.35
2018-09-12T04:30:17.233Z,9.68
2018-09-12T04:32:45.568Z,9.60
2018-09-12T04:35:13.912Z,9.80
2018-09-12T04:37:42.283Z,9.85
2018-09-12T04:40:10.650Z,10.18
2018-09-12T04:42:39.039Z,10.13
2018-09-12T04:45:07.344Z,9.90
2018-09-12T04:47:35.713Z,10.45
2018-09-12T04:50:04.550Z,10.20
2018-09-12T04:52:32.884Z,10.53
2018-09-12T04:55:01.249Z,9.68
2018-09-12T04:57:29.671Z,10.28
2018-09-12T04:59:58.001Z,9.80
2018-09-12T05:02:26.371Z,10.10
2018-09-12T05:04:54.676Z,10.43
2018-09-12T05:07:23.059Z,10.20
2018-09-12T05:09:51.406Z,10.30
2018-09-12T05:12:19.789Z,10.35
2018-09-12T05:14:48.161Z,10.70
2018-09-12T05:17:16.554Z,10.53
2018-09-12T05:19:44.890Z,10.82
2018-09-12T05:22:13.254Z,10.75
2018-09-12T05:24:41.663Z,10.58
2018-09-12T05:27:10.037Z,10.63
2018-09-12T05:29:38.400Z,10.50
2018-09-12T05:32:06.721Z,10.80
2018-09-12T05:34:35.082Z,10.10
2018-09-12T05:37:03.529Z,9.83
2018-09-12T05:39:31.942Z,10.50
2018-09-12T05:42:00.266Z,10.23
2018-09-12T05:44:28.613Z,10.18
2018-09-12T05:46:56.972Z,10.35
2018-09-12T05:49:25.356Z,10.58
2018-09-12T05:51:53.691Z,10.70
2018-09-12T05:54:22.300Z,10.38
2018-09-12T05:56:50.701Z,10.80
2018-09-12T05:59:19.197Z,10.80
2018-09-12T06:01:47.540Z,11.00
2018-09-12T06:04:15.869Z,10.45
2018-09-12T06:06:44.254Z,10.32
2018-09-12T06:09:12.592Z,10.50
2018-09-12T06:11:40.939Z,10.60
2018-09-12T06:14:09.390Z,10.23
2018-09-12T06:16:37.667Z,10.40
2018-09-12T06:19:06.055Z,10.40
2018-09-12T06:21:34.610Z,10.63
2018-09-12T06:24:02.973Z,11.20
2018-09-12T06:26:31.352Z,10.90
2018-09-12T06:28:59.700Z,11.10
2018-09-12T06:31:28.075Z,11.25
2018-09-12T06:33:56.544Z,10.70
2018-09-12T06:36:24.937Z,11.10
2018-09-12T06:38:53.260Z,10.90
2018-09-12T06:41:21.627Z,10.95
2018-09-12T06:43:50.269Z,10.90
2018-09-12T06:46:18.694Z,11.35
2018-09-12T06:48:47.032Z,11.03
2018-09-12T06:51:15.369Z,11.63
2018-09-12T06:53:43.741Z,12.10
2018-09-12T06:56:12.433Z,11.97
2018-09-12T06:58:40.737Z,12.45
2018-09-12T07:01:09.791Z,12.33
2018-09-12T07:03:38.116Z,12.13
2018-09-12T07:06:06.497Z,12.98
2018-09-12T07:08:34.869Z,12.88
2018-09-12T07:11:03.280Z,12.23
2018-09-12T07:13:31.667Z,12.15
2018-09-12T07:16:00.010Z,12.10
2018-09-12T07:18:28.472Z,12.00
2018-09-12T07:20:56.886Z,10.78
2018-09-12T07:23:25.223Z,10.93
2018-09-12T07:25:53.590Z,11.05
2018-09-12T07:28:21.925Z,10.23
2018-09-12T07:30:50.398Z,10.90
2018-09-12T07:33:18.731Z,10.63
2018-09-12T07:35:47.124Z,11.20
2018-09-12T07:38:15.460Z,10.58
2018-09-12T07:40:43.846Z,10.98
2018-09-12T07:43:12.229Z,10.50
2018-09-12T07:45:40.581Z,10.55
2018-09-12T07:48:08.895Z,10.40
2018-09-12T07:50:37.313Z,10.00
2018-09-12T07:53:05.733Z,10.20
2018-09-12T07:55:34.117Z,10.30
2018-09-12T07:58:02.524Z,10.98
2018-09-12T08:00:30.952Z,10.93
2018-09-12T08:02:59.239Z,11.10
2018-09-12T08:05:27.626Z,11.00
2018-09-12T08:07:55.980Z,10.68
2018-09-12T08:10:24.376Z,10.68
2018-09-12T08:12:52.732Z,9.50
2018-09-12T08:15:21.100Z,10.10
2018-09-12T08:17:49.509Z,20.85
2018-09-12T08:20:17.931Z,11.30
2018-09-12T08:22:46.330Z,9.90
2018-09-12T08:25:14.727Z,9.63
2018-09-12T08:27:43.144Z,9.60
2018-09-12T08:30:11.585Z,9.08
2018-09-12T08:32:39.969Z,9.30
2018-09-12T08:35:08.381Z,9.05
2018-09-12T08:37:36.840Z,9.43
2018-09-12T08:40:05.281Z,8.90
2018-09-12T08:42:33.668Z,9.00
2018-09-12T08:45:01.971Z,8.70
2018-09-12T08:47:30.350Z,8.90
2018-09-12T08:49:58.692Z,8.30
2018-09-12T08:52:27.100Z,8.08
2018-09-12T08:54:55.456Z,8.20
2018-09-12T08:57:23.788Z,8.98
2018-09-12T08:59:52.148Z,9.05
2018-09-12T09:02:20.501Z,9.47
2018-09-12T09:04:48.825Z,9.70
2018-09-12T09:07:17.179Z,9.50
2018-09-12T09:09:45.512Z,9.20
2018-09-12T09:12:13.892Z,8.03
2018-09-12T09:14:42.274Z,7.13
2018-09-12T09:17:10.702Z,7.00
2018-09-12T09:19:39.050Z,7.17
2018-09-12T09:22:07.395Z,6.72
2018-09-12T09:24:35.772Z,6.90
2018-09-12T09:27:04.155Z,7.00
2018-09-12T09:29:32.593Z,6.20
2018-09-12T09:32:00.891Z,6.40
2018-09-12T09:34:29.282Z,6.50
2018-09-12T09:36:57.603Z,6.70
2018-09-12T09:39:25.968Z,6.30
2018-09-12T09:41:54.364Z,6.50
2018-09-12T09:44:22.679Z,6.58
2018-09-12T09:46:51.125Z,6.20
2018-09-12T09:49:19.477Z,6.05
2018-09-12T09:51:48.001Z,5.70
2018-09-12T09:54:16.776Z,5.97
2018-09-12T09:56:45.224Z,6.00
2018-09-12T09:59:13.596Z,6.00
2018-09-12T10:01:47.340Z,5.90
2018-09-12T10:04:21.203Z,6.05
2018-09-12T10:06:54.953Z,5.78
2018-09-12T10:09:28.738Z,5.90
2018-09-12T10:11:57.205Z,5.87
2018-09-12T10:14:25.528Z,5.40
2018-09-12T10:16:53.918Z,5.53
2018-09-12T10:19:22.241Z,5.60
2018-09-12T10:21:50.603Z,5.40
2018-09-12T10:24:19.084Z,5.30
2018-09-12T10:26:47.347Z,5.12
2018-09-12T10:29:16.008Z,5.60
2018-09-12T10:31:44.435Z,5.33
2018-09-12T10:34:12.752Z,5.30
2018-09-12T10:36:41.083Z,5.20
2018-09-12T10:39:11.461Z,5.20
2018-09-12T10:41:40.044Z,5.30
2018-09-12T10:44:08.477Z,5.20
2018-09-12T10:46:36.880Z,4.80
2018-09-12T10:49:05.734Z,4.92
2018-09-12T10:51:34.145Z,5.30
2018-09-12T10:54:02.496Z,5.37
2018-09-12T10:56:30.854Z,5.03
2018-09-12T10:58:59.476Z,5.20
2018-09-12T11:01:27.836Z,4.70
2018-09-12T11:03:56.246Z,4.42
2018-09-12T11:06:24.654Z,4.62
2018-09-12T11:08:52.955Z,4.20
2018-09-12T11:11:21.340Z,4.10
2018-09-12T11:13:49.851Z,4.40
2018-09-12T11:16:18.183Z,4.10
2018-09-12T11:18:46.550Z,4.00
2018-09-12T11:21:14.923Z,4.20
2018-09-12T11:23:43.257Z,4.10
2018-09-12T11:26:11.683Z,4.20
2018-09-12T11:28:40.562Z,4.13
2018-09-12T11:31:08.946Z,3.62
2018-09-12T11:33:37.293Z,3.90
2018-09-12T11:36:05.712Z,3.50
2018-09-12T11:38:34.056Z,3.70
2018-09-12T11:41:02.460Z,3.80
2018-09-12T11:43:30.833Z,3.70
2018-09-12T11:45:59.276Z,4.20
2018-09-12T11:48:27.624Z,3.90
2018-09-12T11:50:56.065Z,3.77
2018-09-12T11:53:24.526Z,3.42
2018-09-12T11:55:52.949Z,3.80
2018-09-12T11:58:21.321Z,4.00
2018-09-12T12:00:49.708Z,3.70
2018-09-12T12:03:18.085Z,3.60
2018-09-12T12:05:46.425Z,7.07
2018-09-12T12:08:14.820Z,3.80
2018-09-12T12:10:43.216Z,3.92
2018-09-12T12:13:11.664Z,4.70
2018-09-12T12:15:40.077Z,3.45
2018-09-12T12:18:08.460Z,3.40
2018-09-12T12:20:37.153Z,3.70
2018-09-12T12:23:05.705Z,3.40
2018-09-12T12:25:34.147Z,3.67
2018-09-12T12:28:02.638Z,3.60
2018-09-12T12:30:31.048Z,3.33
2018-09-12T12:32:59.452Z,3.50
2018-09-12T12:35:27.844Z,3.67
2018-09-12T12:37:56.326Z,4.53
2018-09-12T12:40:24.653Z,3.97
2018-09-12T12:42:53.086Z,3.60
2018-09-12T12:45:21.404Z,4.07
2018-09-12T12:47:49.738Z,3.67
2018-09-12T12:50:18.128Z,4.20
2018-09-12T12:52:46.608Z,3.93
2018-09-12T12:55:15.103Z,3.63
2018-09-12T12:57:43.464Z,4.77
2018-09-12T13:00:11.876Z,4.50
2018-09-12T13:02:40.212Z,3.83
2018-09-12T13:05:08.638Z,3.67
2018-09-12T13:07:37.954Z,3.67
2018-09-12T13:10:06.458Z,3.90
2018-09-12T13:12:34.849Z,3.90
2018-09-12T13:15:03.436Z,3.73
2018-09-12T13:17:32.732Z,4.30
2018-09-12T13:20:01.148Z,3.90
2018-09-12T13:22:29.553Z,3.60
2018-09-12T13:24:58.045Z,3.90
2018-09-12T13:27:26.455Z,3.70
2018-09-12T13:29:54.801Z,3.50
2018-09-12T13:32:23.147Z,4.23
2018-09-12T13:34:51.489Z,3.70
2018-09-12T13:37:19.965Z,3.97
2018-09-12T13:39:48.296Z,4.00
2018-09-12T13:42:16.664Z,3.90
2018-09-12T13:44:45.048Z,3.80
2018-09-12T13:47:13.368Z,3.37
2018-09-12T13:49:42.327Z,3.63
2018-09-12T13:52:10.859Z,3.63
2018-09-12T13:54:39.274Z,3.80
2018-09-12T13:57:07.720Z,4.20
2018-09-12T13:59:36.181Z,4.20
2018-09-12T14:02:04.728Z,3.60
2018-09-12T14:04:33.166Z,3.43
2018-09-12T14:07:01.560Z,3.57
2018-09-12T14:09:29.980Z,3.47
2018-09-12T14:11:58.409Z,3.40
2018-09-12T14:14:26.888Z,3.30
2018-09-12T14:16:55.263Z,3.33
2018-09-12T14:19:23.677Z,3.67
2018-09-12T14:21:52.108Z,3.30
2018-09-12T14:24:20.459Z,3.37
2018-09-12T14:26:48.938Z,3.43
2018-09-12T14:29:17.416Z,3.87
2018-09-12T14:31:45.764Z,3.77
2018-09-12T14:34:14.275Z,4.33
2018-09-12T14:36:42.694Z,3.50
2018-09-12T14:39:11.675Z,3.57
2018-09-12T14:41:40.160Z,4.00
2018-09-12T14:44:08.613Z,3.50
2018-09-12T14:46:37.075Z,3.70
2018-09-12T14:49:05.586Z,3.80
2018-09-12T14:51:33.967Z,4.20
2018-09-12T14:54:02.380Z,4.00
2018-09-12T14:56:30.804Z,3.83
2018-09-12T14:58:59.270Z,3.80
2018-09-12T15:01:27.698Z,4.43
2018-09-12T15:03:56.126Z,3.70
2018-09-12T15:06:24.593Z,3.90
2018-09-12T15:08:53.056Z,3.83
2018-09-12T15:11:21.571Z,3.70
2018-09-12T15:13:49.953Z,4.10
2018-09-12T15:16:18.327Z,3.43
2018-09-12T15:18:46.736Z,3.60
2018-09-12T15:21:15.429Z,4.13
2018-09-12T15:23:43.945Z,4.03
2018-09-12T15:26:12.751Z,3.60
2018-09-12T15:28:41.180Z,4.30
2018-09-12T15:31:09.925Z,4.30
2018-09-12T15:33:38.312Z,3.87
2018-09-12T15:36:07.305Z,3.77
2018-09-12T15:38:36.185Z,3.93
2018-09-12T15:41:04.643Z,4.00
2018-09-12T15:43:33.299Z,3.50
2018-09-12T15:46:01.736Z,4.40
2018-09-12T15:48:30.131Z,3.93
2018-09-12T15:50:58.581Z,4.17
2018-09-12T15:53:26.952Z,3.97
2018-09-12T15:55:55.496Z,3.70
2018-09-12T15:58:24.393Z,3.83
2018-09-12T16:00:52.814Z,3.37
2018-09-12T16:03:21.237Z,4.00
2018-09-12T16:05:49.655Z,3.80
2018-09-12T16:08:18.234Z,4.23
2018-09-12T16:10:46.620Z,4.10
2018-09-12T16:13:14.927Z,3.87
2018-09-12T16:15:43.556Z,4.00
2018-09-12T16:18:11.913Z,3.90
2018-09-12T16:20:40.259Z,4.30
2018-09-12T16:23:08.684Z,4.10
2018-09-12T16:25:37.000Z,4.57
2018-09-12T16:28:06.392Z,3.90
2018-09-12T16:30:34.760Z,4.27
2018-09-12T16:33:03.221Z,4.10
2018-09-12T16:35:31.535Z,4.30
2018-09-12T16:37:59.940Z,4.50
2018-09-12T16:40:28.388Z,4.60
2018-09-12T16:42:56.779Z,3.80
2018-09-12T16:45:25.166Z,4.30
2018-09-12T16:47:53.562Z,4.70
2018-09-12T16:50:21.976Z,4.47
2018-09-12T16:52:50.362Z,4.87
2018-09-12T16:55:19.160Z,5.00
2018-09-12T16:57:47.625Z,5.03
2018-09-12T17:00:16.001Z,5.23
2018-09-12T17:02:44.448Z,4.80
2018-09-12T17:05:13.081Z,4.67
2018-09-12T17:07:41.624Z,4.50
2018-09-12T17:10:09.962Z,4.90
2018-09-12T17:12:38.488Z,4.30
2018-09-12T17:15:08.534Z,4.87
2018-09-12T17:17:37.785Z,5.33
2018-09-12T17:20:06.596Z,4.73
2018-09-12T17:22:34.992Z,4.57
2018-09-12T17:25:03.419Z,4.50
2018-09-12T17:27:31.865Z,5.00
2018-09-12T17:30:00.264Z,4.93
2018-09-12T17:32:28.822Z,4.73
2018-09-12T17:34:57.313Z,7.60
2018-09-12T17:37:29.796Z,6.37
2018-09-12T17:39:59.484Z,5.43
2018-09-12T17:42:28.368Z,5.60
2018-09-12T17:45:00.156Z,5.40
2018-09-12T17:47:28.734Z,5.53
2018-09-12T17:49:57.172Z,5.90
2018-09-12T17:52:25.581Z,6.60
2018-09-12T17:54:53.947Z,6.47
2018-09-12T17:57:22.359Z,6.20
2018-09-12T17:59:50.841Z,31.10
2018-09-12T18:02:19.232Z,12.00
2018-09-12T18:04:47.665Z,7.40
2018-09-12T18:07:16.062Z,17.40
2018-09-12T18:09:45.081Z,18.73
2018-09-12T18:12:15.803Z,20.93
2018-09-12T18:14:45.003Z,14.27
2018-09-12T18:17:14.900Z,15.07
2018-09-12T18:19:44.633Z,13.30
2018-09-12T18:22:14.529Z,11.50
2018-09-12T18:24:43.907Z,9.07
2018-09-12T18:27:13.097Z,8.43
2018-09-12T18:29:41.964Z,7.60
2018-09-12T18:32:10.527Z,6.60
2018-09-12T18:34:38.945Z,7.10
2018-09-12T18:37:07.354Z,7.27
2018-09-12T18:39:35.778Z,6.47
2018-09-12T18:42:04.159Z,6.90
2018-09-12T18:44:32.580Z,6.67
2018-09-12T18:47:00.956Z,7.30
2018-09-12T18:49:29.405Z,6.73
2018-09-12T18:51:57.777Z,6.43
2018-09-12T18:54:26.165Z,6.67
2018-09-12T18:56:54.555Z,6.13
2018-09-12T18:59:30.993Z,6.60
2018-09-12T19:02:01.672Z,6.90
2018-09-12T19:04:32.189Z,6.30
2018-09-12T19:07:02.855Z,6.10
2018-09-12T19:09:32.793Z,6.60
2018-09-12T19:12:03.052Z,6.37
2018-09-12T19:14:32.853Z,6.73
2018-09-12T19:17:02.895Z,6.33
2018-09-12T19:19:33.779Z,7.37
2018-09-12T19:22:03.443Z,6.87
2018-09-12T19:24:33.460Z,6.03
2018-09-12T19:27:03.296Z,8.13
2018-09-12T19:29:33.176Z,7.20
2018-09-12T19:32:03.282Z,7.57
2018-09-12T19:34:33.154Z,7.20
2018-09-12T19:37:03.145Z,7.23
2018-09-12T19:39:33.374Z,8.00
2018-09-12T19:42:03.332Z,6.93
2018-09-12T19:44:31.792Z,7.20
2018-09-12T19:47:00.297Z,8.00
2018-09-12T19:49:28.646Z,7.73
2018-09-12T19:51:57.026Z,7.60
2018-09-12T19:54:25.480Z,7.70
2018-09-12T19:56:54.116Z,7.80
2018-09-12T19:59:22.860Z,6.83
2018-09-12T20:01:51.601Z,8.27
2018-09-12T20:04:20.779Z,8.07
2018-09-12T20:06:49.839Z,8.00
2018-09-12T20:09:18.236Z,8.20
2018-09-12T20:11:46.662Z,8.30
2018-09-12T20:14:15.278Z,8.10
2018-09-12T20:16:43.675Z,8.10
2018-09-12T20:19:12.533Z,8.90
2018-09-12T20:21:40.973Z,7.90
2018-09-12T20:24:09.544Z,8.30
2018-09-12T20:26:38.093Z,8.10
2018-09-12T20:29:06.583Z,9.10
2018-09-12T20:31:34.978Z,8.57
2018-09-12T20:34:03.545Z,8.00
2018-09-12T20:36:32.035Z,7.60
2018-09-12T20:39:00.443Z,7.70
2018-09-12T20:41:28.870Z,7.73
2018-09-12T20:43:57.272Z,8.13
2018-09-12T20:46:25.622Z,7.33
2018-09-12T20:48:53.981Z,9.63
2018-09-12T20:51:22.417Z,9.70
2018-09-12T20:53:50.757Z,9.00
2018-09-12T20:56:19.243Z,8.67
2018-09-12T20:58:47.658Z,9.40
2018-09-12T21:01:16.001Z,8.27
2018-09-12T21:03:44.365Z,7.50
2018-09-12T21:06:12.747Z,8.13
2018-09-12T21:08:41.196Z,9.50
2018-09-12T21:11:09.546Z,10.10
2018-09-12T21:13:37.888Z,8.67
2018-09-12T21:16:06.304Z,7.93
2018-09-12T21:18:34.675Z,7.80
2018-09-12T21:21:03.025Z,9.10
2018-09-12T21:23:31.500Z,8.47
2018-09-12T21:25:59.832Z,8.90
2018-09-12T21:28:28.205Z,8.63
2018-09-12T21:30:56.615Z,7.07
2018-09-12T21:33:25.009Z,21.30
2018-09-12T21:35:53.353Z,10.90
2018-09-12T21:38:21.766Z,23.77
2018-09-12T21:40:50.183Z,9.33
2018-09-12T21:43:18.538Z,10.97
2018-09-12T21:45:46.890Z,9.20
2018-09-12T21:48:15.277Z,8.20
2018-09-12T21:50:43.615Z,7.60
2018-09-12T21:53:11.983Z,7.67
2018-09-12T21:55:40.317Z,7.43
2018-09-12T21:58:08.698Z,7.23
2018-09-12T22:00:37.084Z,7.30
2018-09-12T22:03:05.432Z,7.07
2018-09-12T22:05:33.768Z,6.87
2018-09-12T22:08:02.214Z,6.73
2018-09-12T22:10:30.455Z,6.67
2018-09-12T22:12:58.856Z,6.90
2018-09-12T22:15:27.180Z,6.97
2018-09-12T22:17:55.533Z,6.83
2018-09-12T22:20:23.960Z,7.10
2018-09-12T22:22:52.361Z,7.50
2018-09-12T22:25:20.719Z,6.90
2018-09-12T22:27:49.100Z,6.40
2018-09-12T22:30:17.470Z,6.83
2018-09-12T22:32:45.791Z,6.83
2018-09-12T22:35:14.172Z,6.60
2018-09-12T22:37:42.523Z,6.67
2018-09-12T22:40:10.912Z,6.00
2018-09-12T22:42:39.241Z,6.50
2018-09-12T22:45:07.592Z,6.80
2018-09-12T22:47:36.158Z,7.03
2018-09-12T22:50:04.937Z,6.97
2018-09-12T22:52:33.285Z,7.40
2018-09-12T22:55:01.627Z,6.60
2018-09-12T22:57:30.005Z,7.00
2018-09-12T22:59:58.332Z,6.60
2018-09-12T23:02:26.650Z,6.57
2018-09-12T23:04:55.009Z,6.40
2018-09-12T23:07:23.425Z,6.10
2018-09-12T23:09:51.774Z,6.20
2018-09-12T23:12:20.116Z,5.73
2018-09-12T23:14:48.456Z,6.27
2018-09-12T23:17:16.764Z,6.57
2018-09-12T23:19:45.108Z,6.90
2018-09-12T23:22:13.450Z,5.90
2018-09-12T23:24:41.784Z,7.20
2018-09-12T23:27:10.124Z,46.13
2018-09-12T23:29:38.506Z,11.13
2018-09-12T23:32:06.876Z,11.60
2018-09-12T23:34:35.224Z,8.40
2018-09-12T23:37:03.577Z,9.07
2018-09-12T23:39:31.953Z,8.53
2018-09-12T23:42:00.354Z,8.07
2018-09-12T23:44:28.720Z,7.77
2018-09-12T23:46:57.088Z,8.10
2018-09-12T23:49:25.460Z,8.60
2018-09-12T23:51:53.860Z,9.03
2018-09-12T23:54:22.208Z,8.30
2018-09-12T23:56:50.524Z,9.57
2018-09-12T23:59:18.867Z,9.23
